Archival Weather

Snohomish County (Paine Fld)

Everett, Washington (KPAE)

Report from: Tuesday, May 21, 2024 7:02 AM PDT
Current time: Saturday, June 22, 2024 1:46 AM PDT

Current weather – Weather history – Daily summaries
Weather forecast

Temperature10.0°C (50.0°F)
Wind chill7.5°C (45.6°F)
Dew point6.1°C (43.0°F)
Winds 10 kts (5.1 m/s, 11.5 mph) South-Southeast (150°)
Visibility10 mi. (16.1 km)
Clouds Ceiling: Broken clouds 1,300 ft. (396 m)
Overcast 6,500 ft. (1,981 m)
Altimeter30.12 in.Hg (1020 mB)
Relative humidity77 %
Density altitude-689 ft. (-210 m)
Remarks Automated weather observing station with precipitation discriminator
Flight conditions Marginal Visual Meteorological Conditions
Raw dataKPAE 211402Z 15010KT 10SM BKN013 OVC065 10/06 A3012 RMK AO2 T01000061
An error has occurred. This application may no longer respond until reloaded. Reload 🗙